Time;durP1;ratioP1;P1;durP2;ratioP2;P2;SDS_P1;SDS_P2;PMS_P1;PMS_P2;Temp;Humidity;BMP_temperature;BMP_pressure;BME280_temperature;BME280_humidity;BME280_pressure;Samples;Min_cycle;Max_cycle;Signal;HPM_P1;HPM_P2
2022/06/01 00:02:21;;;;;;;;;;;;;;;25.36;28.65;100529.00;5095587;28;19920;-67
2022/06/01 00:04:46;;;;;;;;;;;;;;;25.35;28.63;100528.16;5095181;28;19920;-67
2022/06/01 00:07:12;;;;;;;;;;;;;;;25.36;28.75;100523.53;5077021;28;19916;-69
2022/06/01 00:09:37;;;;;;;;;;;;;;;25.35;28.48;100530.06;5095329;28;19916;-68
2022/06/01 00:12:02;;;;;;;;;;;;;;;25.37;28.59;100541.53;5095851;28;19931;-68
2022/06/01 00:14:28;;;;;;;;;;;;;;;25.37;28.42;100541.53;5094888;28;19916;-67
2022/06/01 00:16:55;;;;;;;;;;;;;;;25.35;28.70;100539.09;5095278;28;19961;-67
2022/06/01 00:19:20;;;;;;;;;;;;;;;25.36;28.55;100542.66;5095735;28;19923;-67
2022/06/01 00:24:29;;;;;;;;;;;;;;;25.36;28.52;100550.88;5094912;28;19927;-66
2022/06/01 00:26:55;;;;;;;;;;;;;;;25.35;28.49;100546.50;5094913;28;19916;-66
2022/06/01 00:29:20;;;;;;;;;;;;;;;25.35;28.60;100547.31;5095084;28;19924;-67
2022/06/01 00:31:45;;;;;;;;;;;;;;;25.36;28.46;100553.59;5095675;28;20350;-66
2022/06/01 00:34:10;;;;;;;;;;;;;;;25.35;28.49;100549.22;5096392;28;20370;-67
2022/06/01 00:36:36;;;;;;;;;;;;;;;25.36;28.52;100550.88;5097168;28;19916;-66
2022/06/01 00:39:01;;;;;;;;;;;;;;;25.36;28.39;100553.59;5096668;28;20281;-66
2022/06/01 00:41:29;;;;;;;;;;;;;;;25.36;28.28;100556.34;5096730;28;19923;-66
2022/06/01 00:43:54;;;;;;;;;;;;;;;25.35;28.42;100558.25;5096458;28;19916;-66
2022/06/01 00:46:20;;;;;;;;;;;;;;;25.36;28.46;100561.81;5095294;28;19916;-66
2022/06/01 00:48:46;;;;;;;;;;;;;;;25.36;28.12;100561.81;5094591;28;19920;-66
2022/06/01 00:51:12;;;;;;;;;;;;;;;25.35;28.35;100566.44;5076141;28;19920;-66
2022/06/01 00:53:37;;;;;;;;;;;;;;;25.36;28.43;100570.03;5075772;28;19916;-66
2022/06/01 00:56:07;;;;;;;;;;;;;;;25.35;28.33;100566.44;5076150;28;19916;-66
2022/06/01 00:58:34;;;;;;;;;;;;;;;25.36;28.20;100572.75;5094468;28;19931;-68
2022/06/01 01:00:59;;;;;;;;;;;;;;;25.36;28.22;100583.69;5094380;28;19917;-68
2022/06/01 01:03:25;;;;;;;;;;;;;;;25.37;27.97;100579.84;5075915;28;19966;-68
2022/06/01 01:05:51;;;;;;;;;;;;;;;25.34;28.13;100575.78;5075957;28;19916;-68
2022/06/01 01:08:16;;;;;;;;;;;;;;;25.35;28.36;100582.06;5075959;28;20001;-67
2022/06/01 01:10:41;;;;;;;;;;;;;;;25.34;28.03;100585.91;5093960;28;20378;-67
2022/06/01 01:13:08;;;;;;;;;;;;;;;25.35;28.09;100582.06;5094292;28;19939;-67
2022/06/01 01:15:38;;;;;;;;;;;;;;;25.35;28.21;100593.00;5093910;28;20358;-67
2022/06/01 01:18:06;;;;;;;;;;;;;;;25.35;28.10;100588.34;5075966;28;19924;-67
2022/06/01 01:20:31;;;;;;;;;;;;;;;25.36;28.13;100589.16;5094065;28;20013;-67
2022/06/01 01:23:00;;;;;;;;;;;;;;;25.36;28.06;100589.16;5076078;28;19931;-67
2022/06/01 01:25:25;;;;;;;;;;;;;;;25.35;28.21;100593.00;5093633;28;19927;-67
2022/06/01 01:27:51;;;;;;;;;;;;;;;25.35;28.15;100598.47;5094081;28;19915;-67
2022/06/01 01:30:34;;;;;;;;;;;;;;;25.35;27.94;100614.88;5093887;28;19924;-67
2022/06/01 01:33:01;;;;;;;;;;;;;;;25.33;28.10;100600.66;5075974;28;19916;-67
2022/06/01 01:35:27;;;;;;;;;;;;;;;25.33;27.87;100612.41;5093928;28;19916;-67
2022/06/01 01:37:52;;;;;;;;;;;;;;;25.35;28.20;100614.88;5093970;28;19924;-67
2022/06/01 01:40:17;;;;;;;;;;;;;;;25.33;27.94;100617.91;5075786;28;19916;-67
2022/06/01 01:42:42;;;;;;;;;;;;;;;25.34;27.90;100618.72;5093920;28;20346;-67
2022/06/01 01:45:13;;;;;;;;;;;;;;;25.35;27.87;100625.81;5093714;28;19916;-68
2022/06/01 01:47:38;;;;;;;;;;;;;;;25.34;27.86;100624.19;5075636;28;19939;-68
2022/06/01 01:50:12;;;;;;;;;;;;;;;25.34;27.79;100629.69;5093698;28;20351;-68
2022/06/01 01:52:38;;;;;;;;;;;;;;;25.34;28.09;100621.47;5093338;28;19923;-68
2022/06/01 01:55:23;;;;;;;;;;;;;;;25.34;27.84;100627.75;5093770;28;19916;-67
2022/06/01 01:57:51;;;;;;;;;;;;;;;25.34;27.94;100629.69;5092915;28;19923;-67
2022/06/01 02:00:36;;;;;;;;;;;;;;;25.33;27.94;100634.31;5093635;28;19938;-67
2022/06/01 02:03:13;;;;;;;;;;;;;;;25.33;27.97;100628.03;5075673;28;20347;-67
2022/06/01 02:08:27;;;;;;;;;;;;;;;25.32;27.91;100634.59;5097439;28;20332;-67
2022/06/01 02:13:38;;;;;;;;;;;;;;;25.32;27.78;100637.31;5082337;28;20286;-67
2022/06/01 02:16:03;;;;;;;;;;;;;;;25.32;27.76;100642.78;5097595;28;19916;-67
2022/06/01 02:18:31;;;;;;;;;;;;;;;25.34;27.79;100643.34;5097224;28;20323;-67
2022/06/01 02:21:04;;;;;;;;;;;;;;;25.32;27.75;100643.63;5097316;28;20294;-67
2022/06/01 02:23:31;;;;;;;;;;;;;;;25.33;27.56;100644.44;5079920;28;19916;-67
2022/06/01 02:25:57;;;;;;;;;;;;;;;25.34;27.51;100654.28;5079103;28;19966;-67
2022/06/01 02:28:25;;;;;;;;;;;;;;;25.33;27.81;100649.91;5097138;28;20389;-67
2022/06/01 02:30:51;;;;;;;;;;;;;;;25.32;27.53;100643.63;5097631;28;19924;-67
2022/06/01 02:33:17;;;;;;;;;;;;;;;25.31;27.72;100650.19;5079112;28;19922;-67
2022/06/01 02:35:45;;;;;;;;;;;;;;;25.33;27.68;100649.91;5097013;28;19923;-68
2022/06/01 02:38:11;;;;;;;;;;;;;;;25.32;27.49;100651.84;5079302;28;19916;-67
2022/06/01 02:40:37;;;;;;;;;;;;;;;25.32;27.78;100648.25;5078947;28;20281;-67
2022/06/01 02:43:02;;;;;;;;;;;;;;;25.32;27.58;100660.03;5096883;28;20327;-67
2022/06/01 02:45:27;;;;;;;;;;;;;;;25.32;27.55;100661.94;5096724;28;19952;-67
2022/06/01 02:47:54;;;;;;;;;;;;;;;25.32;27.59;100667.41;5097069;28;19923;-68
2022/06/01 02:50:20;;;;;;;;;;;;;;;25.32;27.45;100661.94;5097041;28;19916;-68
2022/06/01 02:52:46;;;;;;;;;;;;;;;25.30;27.54;100667.69;5096949;28;19920;-68
2022/06/01 02:55:11;;;;;;;;;;;;;;;25.32;27.72;100670.16;5096587;28;19920;-68
2022/06/01 02:57:37;;;;;;;;;;;;;;;25.31;27.41;100674.81;5096921;28;19916;-68
2022/06/01 03:00:07;;;;;;;;;;;;;;;25.30;27.67;100674.00;5078586;28;19966;-67
2022/06/01 03:02:33;;;;;;;;;;;;;;;25.33;27.58;100672.59;5078507;28;20370;-67
2022/06/01 03:04:58;;;;;;;;;;;;;;;25.33;27.29;100682.72;5096425;28;19973;-67
2022/06/01 03:07:23;;;;;;;;;;;;;;;25.34;27.27;100681.66;5097060;28;20021;-67
2022/06/01 03:09:49;;;;;;;;;;;;;;;25.34;27.48;100695.31;5096410;28;20377;-68
2022/06/01 03:12:14;;;;;;;;;;;;;;;25.33;27.23;100690.94;5096407;28;19916;-68
2022/06/01 03:14:39;;;;;;;;;;;;;;;25.34;27.49;100703.53;5096451;28;20003;-67
2022/06/01 03:17:05;;;;;;;;;;;;;;;25.36;27.49;100693.13;5095253;28;19916;-67
2022/06/01 03:19:30;;;;;;;;;;;;;;;25.36;27.49;100709.53;5096295;28;19998;-67
2022/06/01 03:21:55;;;;;;;;;;;;;;;25.37;27.32;100702.94;5096355;28;19941;-68
2022/06/01 03:24:20;;;;;;;;;;;;;;;25.36;27.26;100709.53;5095879;28;19920;-68
2022/06/01 03:26:46;;;;;;;;;;;;;;;25.35;27.47;100711.44;5096139;28;19916;-68
2022/06/01 03:29:11;;;;;;;;;;;;;;;25.35;27.63;100705.16;5096159;28;19928;-68
2022/06/01 03:31:36;;;;;;;;;;;;;;;25.36;27.49;100712.28;5096004;28;19923;-68
2022/06/01 03:34:02;;;;;;;;;;;;;;;25.38;27.40;100719.09;5095802;28;20015;-68
2022/06/01 03:36:27;;;;;;;;;;;;;;;25.38;27.21;100713.63;5096033;28;19923;-68
2022/06/01 03:38:52;;;;;;;;;;;;;;;25.38;27.40;100716.34;5096038;28;19942;-67
2022/06/01 03:41:18;;;;;;;;;;;;;;;25.39;27.20;100726.22;5096156;28;20420;-67
2022/06/01 03:46:29;;;;;;;;;;;;;;;25.40;27.51;100718.81;5095828;28;20026;-68
2022/06/01 03:48:54;;;;;;;;;;;;;;;25.41;27.26;100715.00;5095989;28;19962;-68
2022/06/01 03:51:19;;;;;;;;;;;;;;;25.42;27.47;100735.75;5098403;28;20234;-67
2022/06/01 03:53:45;;;;;;;;;;;;;;;25.41;27.41;100725.94;5103699;28;19928;-67
2022/06/01 03:56:10;;;;;;;;;;;;;;;25.42;27.34;100727.56;5107921;28;19920;-67
2022/06/01 03:58:36;;;;;;;;;;;;;;;25.43;27.41;100726.47;5096543;28;19916;-67
2022/06/01 04:01:01;;;;;;;;;;;;;;;25.43;27.40;100721.81;5096209;28;19916;-67
2022/06/01 04:03:26;;;;;;;;;;;;;;;25.44;27.33;100725.34;5095863;28;19920;-67
2022/06/01 04:05:51;;;;;;;;;;;;;;;25.44;27.38;100728.94;5095692;28;19926;-68
2022/06/01 04:08:17;;;;;;;;;;;;;;;25.46;27.24;100728.66;5095521;28;19943;-67
2022/06/01 04:10:43;;;;;;;;;;;;;;;25.46;27.16;100731.38;5095290;28;20011;-67
2022/06/01 04:13:08;;;;;;;;;;;;;;;25.46;27.06;100736.84;5095457;28;19969;-68
2022/06/01 04:15:34;;;;;;;;;;;;;;;25.46;27.37;100731.38;5095027;28;20344;-68
2022/06/01 04:17:59;;;;;;;;;;;;;;;25.48;27.28;100737.41;5094996;28;19916;-68
2022/06/01 04:20:24;;;;;;;;;;;;;;;25.49;27.23;100739.00;5095273;28;20007;-68
2022/06/01 04:22:49;;;;;;;;;;;;;;;25.48;27.21;100737.41;5094981;28;19916;-68
2022/06/01 04:25:16;;;;;;;;;;;;;;;25.49;27.08;100739.84;5094801;28;19920;-68
2022/06/01 04:27:41;;;;;;;;;;;;;;;25.50;27.16;100743.41;5094989;28;19998;-68
2022/06/01 04:30:07;;;;;;;;;;;;;;;25.51;27.16;100747.78;5095310;28;19982;-68
2022/06/01 04:32:32;;;;;;;;;;;;;;;25.51;27.21;100753.25;5094832;28;19973;-68
2022/06/01 04:34:59;;;;;;;;;;;;;;;25.51;27.06;100746.94;5076433;28;20414;-67
2022/06/01 04:37:25;;;;;;;;;;;;;;;25.50;27.05;100743.41;5094472;28;19920;-68
2022/06/01 04:39:50;;;;;;;;;;;;;;;25.51;27.14;100749.69;5094756;28;20011;-68
2022/06/01 04:42:15;;;;;;;;;;;;;;;25.50;27.18;100748.88;5094675;28;19920;-68
2022/06/01 04:44:41;;;;;;;;;;;;;;;25.49;27.26;100753.53;5094333;28;19916;-68
2022/06/01 04:47:06;;;;;;;;;;;;;;;25.50;27.22;100759.81;5094671;28;19920;-68
2022/06/01 04:49:31;;;;;;;;;;;;;;;25.50;27.01;100754.34;5094673;28;19986;-69
2022/06/01 04:51:57;;;;;;;;;;;;;;;25.51;27.04;100758.72;5094386;28;19959;-69
2022/06/01 04:54:22;;;;;;;;;;;;;;;25.53;26.95;100759.28;5094906;28;19917;-69
2022/06/01 04:56:47;;;;;;;;;;;;;;;25.55;27.01;100765.28;5094478;28;20406;-68
2022/06/01 04:59:16;;;;;;;;;;;;;;;25.54;27.11;100763.63;5094047;28;19916;-68
2022/06/01 05:01:42;;;;;;;;;;;;;;;25.54;27.08;100760.88;5094272;28;19920;-68
2022/06/01 05:04:07;;;;;;;;;;;;;;;25.53;26.95;100762.00;5094716;28;19939;-69
2022/06/01 05:06:32;;;;;;;;;;;;;;;25.55;27.17;100772.69;5094965;28;19923;-69
2022/06/01 05:08:58;;;;;;;;;;;;;;;25.54;27.03;100771.03;5094856;28;19938;-70
2022/06/01 05:11:23;;;;;;;;;;;;;;;25.55;27.02;100784.44;5094527;28;20286;-69
2022/06/01 05:13:48;;;;;;;;;;;;;;;25.55;26.85;100780.88;5094394;28;19916;-69
2022/06/01 05:16:14;;;;;;;;;;;;;;;25.57;27.09;100792.38;5093945;28;19920;-68
2022/06/01 05:18:39;;;;;;;;;;;;;;;25.57;26.95;100789.63;5075983;28;19917;-68
2022/06/01 05:21:04;;;;;;;;;;;;;;;25.54;27.09;100795.66;5094192;28;19917;-67
2022/06/01 05:23:29;;;;;;;;;;;;;;;25.56;27.17;100794.28;5094609;28;19916;-68
2022/06/01 05:25:55;;;;;;;;;;;;;;;25.49;26.89;100800.06;5094081;28;20259;-67
2022/06/01 05:28:21;;;;;;;;;;;;;;;25.57;27.02;100795.09;5094391;28;19920;-68
2022/06/01 05:30:46;;;;;;;;;;;;;;;25.62;27.27;100795.09;5094302;28;20332;-69
2022/06/01 05:33:11;;;;;;;;;;;;;;;25.62;27.05;100798.63;5094512;28;19938;-68
2022/06/01 05:35:37;;;;;;;;;;;;;;;25.64;27.08;100804.63;5094256;28;20015;-67
2022/06/01 05:38:02;;;;;;;;;;;;;;;25.62;27.19;100806.84;5093933;28;19924;-68
2022/06/01 05:40:30;;;;;;;;;;;;;;;25.67;27.11;100803.28;5093130;28;20386;-68
2022/06/01 05:42:55;;;;;;;;;;;;;;;25.67;27.58;100812.31;5093522;28;19942;-69
2022/06/01 05:45:20;;;;;;;;;;;;;;;25.73;27.24;100806.81;5093331;28;20328;-69
2022/06/01 05:47:45;;;;;;;;;;;;;;;25.72;27.08;100807.94;5093050;28;19959;-68
2022/06/01 05:50:11;;;;;;;;;;;;;;;25.74;27.28;100806.53;5093363;28;19916;-68
2022/06/01 05:52:38;;;;;;;;;;;;;;;25.72;27.03;100811.47;5092861;28;19916;-68
2022/06/01 05:55:05;;;;;;;;;;;;;;;25.74;27.00;100817.50;5092902;28;19916;-68
2022/06/01 05:57:31;;;;;;;;;;;;;;;25.76;26.93;100817.22;5092663;28;20362;-68
2022/06/01 05:59:56;;;;;;;;;;;;;;;25.78;26.88;100815.81;5092907;28;19964;-68
2022/06/01 06:02:22;;;;;;;;;;;;;;;25.80;26.92;100823.75;5093546;28;19927;-68
2022/06/01 06:04:47;;;;;;;;;;;;;;;25.81;26.96;100820.75;5093215;28;20052;-68
2022/06/01 06:07:12;;;;;;;;;;;;;;;25.80;26.95;100832.81;5093252;28;19916;-68
2022/06/01 06:09:37;;;;;;;;;;;;;;;25.82;26.84;100821.59;5092830;28;19923;-68
2022/06/01 06:12:03;;;;;;;;;;;;;;;25.82;27.07;100822.41;5074886;28;19927;-68
2022/06/01 06:14:30;;;;;;;;;;;;;;;25.83;26.75;100834.16;5093549;28;19924;-68
2022/06/01 06:16:55;;;;;;;;;;;;;;;25.82;26.70;100816.91;5092924;28;19920;-69
2022/06/01 06:19:20;;;;;;;;;;;;;;;25.82;26.70;100822.41;5093128;28;20263;-69
2022/06/01 06:21:46;;;;;;;;;;;;;;;25.83;26.88;100813.06;5092685;28;20275;-69
2022/06/01 06:24:13;;;;;;;;;;;;;;;25.84;26.98;100816.63;5092698;28;20006;-68
2022/06/01 06:26:38;;;;;;;;;;;;;;;25.85;26.68;100812.78;5094187;28;20266;-71
2022/06/01 06:29:04;;;;;;;;;;;;;;;25.87;26.73;100813.31;5092312;28;20485;-67
2022/06/01 06:31:29;;;;;;;;;;;;;;;25.89;26.64;100813.88;5092759;28;19920;-67
2022/06/01 06:33:55;;;;;;;;;;;;;;;25.89;26.68;100819.34;5092413;28;19916;-67
2022/06/01 06:36:20;;;;;;;;;;;;;;;25.85;26.86;100816.38;5092748;28;19962;-67
2022/06/01 06:38:45;;;;;;;;;;;;;;;25.85;26.67;100816.38;5093176;28;19941;-66
2022/06/01 06:41:11;;;;;;;;;;;;;;;25.91;26.95;100806.19;5092754;28;20277;-66
2022/06/01 06:43:36;;;;;;;;;;;;;;;25.92;26.67;100816.03;5092604;28;19916;-67
2022/06/01 06:46:05;;;;;;;;;;;;;;;25.93;26.77;100808.66;5092803;28;19920;-67
2022/06/01 06:48:31;;;;;;;;;;;;;;;25.90;27.09;100814.69;5093539;28;19943;-68
2022/06/01 06:50:56;;;;;;;;;;;;;;;25.93;26.83;100817.69;5092691;28;20405;-67
2022/06/01 06:53:21;;;;;;;;;;;;;;;25.96;26.87;100816.34;5096579;28;19920;-69
2022/06/01 06:55:47;;;;;;;;;;;;;;;25.68;27.26;100827.63;5096447;28;20011;-68
2022/06/01 06:58:12;;;;;;;;;;;;;;;25.68;26.91;100824.06;5096367;28;19980;-67
2022/06/01 07:00:37;;;;;;;;;;;;;;;25.71;27.12;100826.25;5096001;28;20015;-68
2022/06/01 07:03:03;;;;;;;;;;;;;;;25.80;27.09;100829.22;5095891;28;19923;-66
2022/06/01 07:08:12;;;;;;;;;;;;;;;25.79;26.85;100838.56;5096160;28;19938;-68
2022/06/01 07:10:37;;;;;;;;;;;;;;;25.88;26.84;100831.41;5085381;28;20007;-68
2022/06/01 07:13:03;;;;;;;;;;;;;;;25.93;26.79;100836.84;5075886;28;19916;-67
2022/06/01 07:15:28;;;;;;;;;;;;;;;25.94;26.71;100830.31;5075664;28;19916;-68
2022/06/01 07:17:53;;;;;;;;;;;;;;;25.96;26.80;100836.34;5075757;28;19928;-67
2022/06/01 07:20:18;;;;;;;;;;;;;;;26.04;26.72;100840.41;5075395;28;20139;-68
2022/06/01 07:22:44;;;;;;;;;;;;;;;26.05;26.76;100836.56;5075549;28;19928;-68
2022/06/01 07:25:09;;;;;;;;;;;;;;;26.07;26.78;100841.78;5086802;28;19961;-68
2022/06/01 07:27:36;;;;;;;;;;;;;;;26.00;26.56;100834.66;5095654;28;20385;-68
2022/06/01 07:30:01;;;;;;;;;;;;;;;26.08;26.37;100848.88;5095913;28;19920;-68
2022/06/01 07:32:26;;;;;;;;;;;;;;;26.08;26.66;100846.13;5095844;28;20018;-69
2022/06/01 07:34:52;;;;;;;;;;;;;;;26.08;26.44;100846.97;5096403;28;19920;-68
2022/06/01 07:45:28;;;;;;;;;;;;;;;26.35;25.99;100868.47;5095586;28;20377;-67
2022/06/01 07:47:54;;;;;;;;;;;;;;;26.49;25.87;100865.09;5095451;28;19916;-68
2022/06/01 07:50:19;;;;;;;;;;;;;;;26.62;25.51;100872.75;5095516;28;20373;-68
2022/06/01 07:52:44;;;;;;;;;;;;;;;26.67;25.53;100874.63;5095245;28;19989;-68
2022/06/01 07:55:10;;;;;;;;;;;;;;;26.77;25.66;100878.13;5096227;28;20009;-69
2022/06/01 07:57:35;;;;;;;;;;;;;;;26.90;25.30;100879.38;5096131;28;19923;-68
2022/06/01 08:00:00;;;;;;;;;;;;;;;26.93;25.19;100881.56;5095324;28;19915;-69
2022/06/01 08:02:25;;;;;;;;;;;;;;;27.02;24.90;100881.78;5077109;28;20430;-68
2022/06/01 08:04:51;;;;;;;;;;;;;;;27.08;24.96;100886.13;5076546;28;19916;-69
2022/06/01 08:07:16;;;;;;;;;;;;;;;27.10;24.71;100881.16;5095482;28;20282;-69
2022/06/01 08:09:41;;;;;;;;;;;;;;;27.24;24.76;100884.06;5096000;28;19920;-69
2022/06/01 08:14:50;;;;;;;;;;;;;;;27.31;24.45;100894.75;5095820;28;19965;-68
2022/06/01 08:17:16;;;;;;;;;;;;;;;27.45;24.41;100890.22;5095295;28;19916;-68
2022/06/01 08:19:41;;;;;;;;;;;;;;;27.57;24.04;100894.50;5094901;28;20363;-69
2022/06/01 08:22:06;;;;;;;;;;;;;;;27.66;24.02;100904.56;5094566;28;20343;-69
2022/06/01 08:24:32;;;;;;;;;;;;;;;27.77;23.79;100909.94;5094223;28;19924;-68
2022/06/01 08:26:57;;;;;;;;;;;;;;;27.87;23.57;100915.31;5076178;28;19963;-69
2022/06/01 08:29:23;;;;;;;;;;;;;;;27.96;23.54;100913.63;5094397;28;19920;-68
2022/06/01 08:31:48;;;;;;;;;;;;;;;27.98;23.34;100907.84;5094395;28;19985;-68
2022/06/01 08:34:15;;;;;;;;;;;;;;;28.05;23.20;100908.31;5095582;28;19962;-68
2022/06/01 08:36:40;;;;;;;;;;;;;;;28.08;23.03;100902.22;5095339;28;19916;-69
2022/06/01 08:39:06;;;;;;;;;;;;;;;28.12;23.16;100903.28;5094263;28;19922;-68
2022/06/01 08:41:32;;;;;;;;;;;;;;;28.24;23.07;100911.09;5095124;28;19970;-68
2022/06/01 08:43:59;;;;;;;;;;;;;;;28.31;23.03;100902.50;5076352;28;19916;-69
2022/06/01 08:46:24;;;;;;;;;;;;;;;28.39;22.84;100908.16;5095461;28;20278;-68
2022/06/01 08:48:50;;;;;;;;;;;;;;;28.48;22.78;100905.56;5094695;28;19917;-68
2022/06/01 08:51:19;;;;;;;;;;;;;;;28.51;22.49;100899.47;5094335;28;20323;-68
2022/06/01 08:53:44;;;;;;;;;;;;;;;28.53;22.50;100904.66;5094049;28;20362;-68
2022/06/01 08:56:10;;;;;;;;;;;;;;;28.67;22.29;100904.78;5076195;28;19916;-68
2022/06/01 08:58:38;;;;;;;;;;;;;;;28.72;22.22;100905.53;5094268;28;19974;-68
2022/06/01 09:01:04;;;;;;;;;;;;;;;28.73;22.19;100906.34;5093960;28;19923;-68
2022/06/01 09:03:48;;;;;;;;;;;;;;;28.78;22.21;100911.75;5094540;28;19916;-68
2022/06/01 09:06:15;;;;;;;;;;;;;;;28.82;22.47;100932.03;5093896;28;19927;-67
2022/06/01 09:08:48;;;;;;;;;;;;;;;28.96;22.12;100918.34;5075765;28;19916;-67
2022/06/01 09:11:14;;;;;;;;;;;;;;;28.87;21.96;100918.22;5075630;28;20072;-67
2022/06/01 09:13:46;;;;;;;;;;;;;;;28.93;22.15;100917.03;5094058;28;20021;-67
2022/06/01 09:16:15;;;;;;;;;;;;;;;29.07;21.51;100916.28;5074822;28;19985;-67
2022/06/01 09:18:41;;;;;;;;;;;;;;;28.96;21.71;100921.94;5075608;28;19917;-68
2022/06/01 09:24:02;;;;;;;;;;;;;;;28.75;22.32;100928.84;5077990;28;20096;-68
2022/06/01 09:26:28;;;;;;;;;;;;;;;28.87;22.06;100931.97;5093504;28;20425;-67
2022/06/01 09:28:55;;;;;;;;;;;;;;;28.88;21.80;100936.38;5093773;28;19923;-67
2022/06/01 09:31:23;;;;;;;;;;;;;;;28.55;22.25;100939.03;5093624;28;19920;-66
2022/06/01 09:33:49;;;;;;;;;;;;;;;28.74;22.18;100932.75;5094783;28;20384;-68
2022/06/01 09:36:16;;;;;;;;;;;;;;;28.87;21.84;100933.91;5093321;28;19916;-67
2022/06/01 09:38:41;;;;;;;;;;;;;;;28.76;22.01;100930.50;5075367;28;19999;-66
2022/06/01 09:41:08;;;;;;;;;;;;;;;28.71;22.12;100920.38;5093587;28;19958;-67
2022/06/01 09:43:33;;;;;;;;;;;;;;;28.83;21.86;100930.94;5093502;28;19916;-66
2022/06/01 09:45:59;;;;;;;;;;;;;;;28.92;21.71;100931.91;5092972;28;19923;-67
2022/06/01 09:48:28;;;;;;;;;;;;;;;28.91;21.88;100929.47;5092942;28;19916;-66
2022/06/01 09:51:05;;;;;;;;;;;;;;;28.91;21.83;100937.72;5075559;28;19922;-67
2022/06/01 09:53:35;;;;;;;;;;;;;;;28.92;21.66;100937.41;5093394;28;19916;-67
2022/06/01 09:56:01;;;;;;;;;;;;;;;28.88;21.89;100941.06;5075253;28;19965;-67
2022/06/01 10:06:47;;;;;;;;;;;;;;;28.90;21.58;100936.88;5093134;28;19993;-67
2022/06/01 10:09:13;;;;;;;;;;;;;;;28.93;21.79;100939.03;5094047;28;19970;-69
2022/06/01 10:11:44;;;;;;;;;;;;;;;28.96;21.45;100943.97;5075043;28;19959;-68
2022/06/01 10:14:19;;;;;;;;;;;;;;;29.15;21.10;100940.38;5093373;28;19916;-68
2022/06/01 10:16:58;;;;;;;;;;;;;;;29.17;21.26;100943.69;5075523;28;20011;-67
2022/06/01 10:19:31;;;;;;;;;;;;;;;29.08;21.24;100942.66;5100925;28;19954;-67
2022/06/01 10:21:57;;;;;;;;;;;;;;;29.17;21.33;100943.69;5093938;28;19923;-67
2022/06/01 10:24:38;;;;;;;;;;;;;;;29.18;21.33;100945.28;5092875;28;19924;-66
2022/06/01 10:27:03;;;;;;;;;;;;;;;29.15;21.23;100940.38;5095367;28;19947;-66
2022/06/01 10:29:34;;;;;;;;;;;;;;;29.29;21.26;100941.28;5097367;28;19920;-66
2022/06/01 10:32:04;;;;;;;;;;;;;;;29.20;21.34;100945.81;5097019;28;19924;-66
2022/06/01 10:34:35;;;;;;;;;;;;;;;29.18;21.34;100948.88;5079154;28;19970;-66
2022/06/01 10:37:19;;;;;;;;;;;;;;;29.15;21.20;100946.69;5078394;28;20003;-68
2022/06/01 10:39:55;;;;;;;;;;;;;;;29.25;21.08;100944.91;5096375;28;19969;-67
2022/06/01 10:43:16;;;;;;;;;;;;;;;29.17;20.94;100941.72;5096307;28;19917;-67
2022/06/01 10:45:12;;;;;;;;;;;;;;;29.43;20.90;100946.00;5081297;28;19924;-67
2022/06/01 10:47:54;;;;;;;;;;;;;;;29.51;21.01;100937.03;5096640;28;19916;-66
2022/06/01 10:50:19;;;;;;;;;;;;;;;29.62;21.10;100946.78;5096607;28;19948;-67
2022/06/01 10:52:48;;;;;;;;;;;;;;;29.69;20.56;100938.91;5096637;28;19951;-67
2022/06/01 10:55:14;;;;;;;;;;;;;;;29.61;20.83;100931.34;5078118;28;19916;-67
2022/06/01 10:57:41;;;;;;;;;;;;;;;29.59;20.59;100941.84;5078215;28;19955;-67
2022/06/01 11:00:07;;;;;;;;;;;;;;;29.59;20.71;100917.06;5096186;28;19951;-68
2022/06/01 11:02:39;;;;;;;;;;;;;;;29.53;20.51;100921.88;5096185;28;19920;-67
2022/06/01 11:05:13;;;;;;;;;;;;;;;29.50;20.61;100930.72;5096203;28;19969;-67
2022/06/01 11:07:57;;;;;;;;;;;;;;;29.36;21.09;100936.19;5079002;28;19916;-67
2022/06/01 11:10:25;;;;;;;;;;;;;;;29.33;20.74;100947.00;5096581;28;19920;-67
2022/06/01 11:13:12;;;;;;;;;;;;;;;29.30;20.85;100951.16;5096313;28;19926;-68
2022/06/01 11:15:37;;;;;;;;;;;;;;;29.12;21.35;100946.47;5096208;28;19916;-68
2022/06/01 11:18:18;;;;;;;;;;;;;;;29.11;21.52;100951.16;5095775;28;19928;-68
2022/06/01 11:20:44;;;;;;;;;;;;;;;29.03;21.32;100952.66;5077907;28;20011;-67
2022/06/01 11:23:15;;;;;;;;;;;;;;;28.99;21.45;100959.88;5096303;28;19966;-67
2022/06/01 11:26:01;;;;;;;;;;;;;;;28.88;21.47;100941.88;5095601;28;19963;-68
2022/06/01 11:28:38;;;;;;;;;;;;;;;28.74;21.65;100941.00;5033688;28;19921;-68
2022/06/01 11:31:19;;;;;;;;;;;;;;;28.70;21.68;100935.28;5033259;28;20283;-68
2022/06/01 11:33:53;;;;;;;;;;;;;;;28.62;21.70;100950.47;5033758;28;19921;-68
2022/06/01 11:36:30;;;;;;;;;;;;;;;28.52;21.86;100947.84;5033078;28;20015;-69
2022/06/01 11:39:15;;;;;;;;;;;;;;;28.48;22.22;100946.81;5032041;28;19955;-68
2022/06/01 11:41:41;;;;;;;;;;;;;;;28.39;21.82;100941.13;4974323;28;19932;-69
2022/06/01 11:44:09;;;;;;;;;;;;;;;28.32;22.19;100959.09;4958420;28;20039;-69
2022/06/01 11:46:39;;;;;;;;;;;;;;;28.37;22.05;100950.78;4958280;28;19922;-69
2022/06/01 11:49:09;;;;;;;;;;;;;;;28.21;22.32;100939.97;4958151;28;20392;-69
2022/06/01 11:51:37;;;;;;;;;;;;;;;28.15;22.48;100949.41;4973995;28;19918;-69
2022/06/01 11:54:04;;;;;;;;;;;;;;;28.10;22.68;100952.19;4974128;28;19922;-70
2022/06/01 11:56:30;;;;;;;;;;;;;;;27.91;22.91;100955.69;4973922;28;20074;-69
2022/06/01 11:58:58;;;;;;;;;;;;;;;27.84;22.96;100941.47;4974436;28;19947;-69
2022/06/01 12:01:33;;;;;;;;;;;;;;;28.01;22.84;100946.53;4974302;28;20011;-69
2022/06/01 12:04:17;;;;;;;;;;;;;;;27.71;23.38;100956.66;4973818;28;20396;-68
2022/06/01 12:06:42;;;;;;;;;;;;;;;27.48;23.63;100940.97;5031773;28;19939;-69
2022/06/01 12:09:11;;;;;;;;;;;;;;;27.44;23.74;100965.44;5032513;28;19924;-68
2022/06/01 12:11:38;;;;;;;;;;;;;;;27.43;23.96;100960.25;5048792;28;20054;-69
2022/06/01 12:14:05;;;;;;;;;;;;;;;27.31;24.20;100958.66;5032791;28;19975;-70
2022/06/01 12:16:31;;;;;;;;;;;;;;;27.23;23.97;100952.94;5015920;28;20047;-69
2022/06/01 12:18:59;;;;;;;;;;;;;;;27.29;24.11;100949.09;5068684;28;19973;-69
2022/06/01 12:21:24;;;;;;;;;;;;;;;27.41;24.09;100954.22;5095032;28;20014;-69
2022/06/01 12:29:32;;;;;;;;;;;;;;;27.28;24.71;100944.72;5079677;28;20378;-68
2022/06/01 12:31:57;;;;;;;;;;;;;;;27.11;24.49;100950.56;5095079;28;19920;-70
2022/06/01 12:34:27;;;;;;;;;;;;;;;27.42;24.09;100953.91;5095210;28;19916;-68
2022/06/01 12:37:06;;;;;;;;;;;;;;;27.58;23.89;100946.38;5095000;28;19920;-68
2022/06/01 12:39:37;;;;;;;;;;;;;;;27.61;23.91;100947.72;5094855;28;19999;-68
2022/06/01 12:42:21;;;;;;;;;;;;;;;27.54;23.74;100953.53;5094440;28;20057;-68
2022/06/01 12:44:47;;;;;;;;;;;;;;;27.49;23.69;100953.59;5094858;28;19916;-68
2022/06/01 12:47:22;;;;;;;;;;;;;;;27.28;23.94;100955.69;5076048;28;20415;-68
2022/06/01 12:49:48;;;;;;;;;;;;;;;27.22;23.95;100945.84;5095067;28;19968;-69
2022/06/01 12:52:18;;;;;;;;;;;;;;;27.61;23.82;100947.72;5094251;28;20015;-70
2022/06/01 12:55:04;;;;;;;;;;;;;;;27.34;23.88;100949.88;5076639;28;19955;-69
2022/06/01 12:57:32;;;;;;;;;;;;;;;27.43;24.11;100961.06;5093781;28;19916;-70
2022/06/01 12:59:58;;;;;;;;;;;;;;;27.79;23.54;100951.69;5094044;28;20354;-69
2022/06/01 13:02:23;;;;;;;;;;;;;;;27.88;23.14;100952.69;5094364;28;19916;-68
2022/06/01 13:04:52;;;;;;;;;;;;;;;27.65;23.47;100943.31;5094315;28;20019;-69
2022/06/01 13:07:17;;;;;;;;;;;;;;;27.50;23.70;100952.50;5094149;28;19920;-68
2022/06/01 13:09:43;;;;;;;;;;;;;;;27.38;23.76;100960.28;5076602;28;19916;-68
2022/06/01 13:12:15;;;;;;;;;;;;;;;27.44;23.61;100948.13;5093713;28;20366;-69
2022/06/01 13:14:40;;;;;;;;;;;;;;;27.42;23.98;100956.66;5093908;28;20251;-68
2022/06/01 13:17:09;;;;;;;;;;;;;;;27.46;24.01;100963.22;5094264;28;19916;-69
2022/06/01 13:19:35;;;;;;;;;;;;;;;27.64;23.71;100949.91;5093764;28;20366;-68